createdAt,value
2023-05-20T00:01:32.650Z,100.00
2023-05-20T00:04:03.001Z,100.00
2023-05-20T00:06:33.981Z,100.00
2023-05-20T00:09:04.945Z,100.00
2023-05-20T00:11:38.497Z,100.00
2023-05-20T00:14:09.460Z,100.00
2023-05-20T00:16:39.939Z,100.00
2023-05-20T00:19:10.502Z,100.00
2023-05-20T00:21:41.056Z,100.00
2023-05-20T00:24:12.729Z,100.00
2023-05-20T00:26:45.803Z,100.00
2023-05-20T00:29:19.080Z,100.00
2023-05-20T00:31:49.953Z,100.00
2023-05-20T00:34:20.630Z,100.00
2023-05-20T00:36:51.868Z,100.00
2023-05-20T00:39:22.140Z,100.00
2023-05-20T00:41:55.811Z,100.00
2023-05-20T00:44:27.362Z,100.00
2023-05-20T00:46:59.176Z,100.00
2023-05-20T00:49:29.815Z,100.00
2023-05-20T00:52:00.413Z,100.00
2023-05-20T00:54:30.762Z,100.00
2023-05-20T00:57:04.069Z,100.00
2023-05-20T00:59:34.301Z,100.00
2023-05-20T01:02:05.277Z,100.00
2023-05-20T01:04:36.255Z,100.00
2023-05-20T01:07:09.064Z,100.00
2023-05-20T01:09:39.379Z,100.00
2023-05-20T01:12:18.737Z,100.00
2023-05-20T01:14:52.875Z,100.00
2023-05-20T01:17:27.328Z,100.00
2023-05-20T01:19:59.868Z,100.00
2023-05-20T01:22:33.207Z,100.00
2023-05-20T01:25:04.614Z,100.00
2023-05-20T01:27:36.120Z,100.00
2023-05-20T01:30:06.672Z,100.00
2023-05-20T01:32:41.606Z,100.00
2023-05-20T01:35:13.226Z,100.00
2023-05-20T01:37:46.980Z,100.00
2023-05-20T01:40:19.404Z,100.00
2023-05-20T01:42:53.716Z,100.00
2023-05-20T01:45:27.547Z,100.00
2023-05-20T01:47:58.093Z,100.00
2023-05-20T01:50:28.749Z,100.00
2023-05-20T01:53:01.803Z,100.00
2023-05-20T01:55:32.496Z,100.00
2023-05-20T01:58:04.115Z,100.00
2023-05-20T02:00:36.305Z,100.00
2023-05-20T02:03:07.910Z,100.00
2023-05-20T02:05:39.516Z,100.00
2023-05-20T02:08:12.594Z,100.00
2023-05-20T02:10:42.922Z,100.00
2023-05-20T02:13:13.066Z,100.00
2023-05-20T02:15:45.332Z,100.00
2023-05-20T02:18:18.981Z,100.00
2023-05-20T02:20:49.892Z,100.00
2023-05-20T02:23:22.929Z,100.00
2023-05-20T02:25:53.298Z,100.00
2023-05-20T02:28:23.779Z,100.00
2023-05-20T02:30:54.703Z,100.00
2023-05-20T02:33:26.134Z,100.00
2023-05-20T02:35:56.728Z,100.00
2023-05-20T02:38:32.023Z,100.00
2023-05-20T02:41:04.749Z,100.00
2023-05-20T02:43:36.809Z,100.00
2023-05-20T02:46:07.342Z,100.00
2023-05-20T02:48:37.748Z,100.00
2023-05-20T02:51:08.913Z,100.00
2023-05-20T02:53:42.100Z,100.00
2023-05-20T02:56:13.598Z,100.00
2023-05-20T02:58:43.825Z,100.00
2023-05-20T03:01:14.153Z,100.00
2023-05-20T03:03:45.015Z,100.00
2023-05-20T03:06:15.434Z,100.00
2023-05-20T03:08:48.722Z,100.00
2023-05-20T03:11:22.242Z,100.00
2023-05-20T03:13:52.443Z,100.00
2023-05-20T03:16:22.653Z,100.00
2023-05-20T03:18:54.802Z,100.00
2023-05-20T03:21:25.521Z,100.00
2023-05-20T03:23:58.694Z,100.00
2023-05-20T03:26:29.020Z,100.00
2023-05-20T03:28:59.552Z,100.00
2023-05-20T03:31:30.863Z,100.00
2023-05-20T03:34:01.501Z,100.00
2023-05-20T03:36:32.321Z,100.00
2023-05-20T03:39:05.901Z,100.00
2023-05-20T03:41:38.228Z,100.00
2023-05-20T03:44:08.889Z,100.00
2023-05-20T03:46:39.355Z,100.00
2023-05-20T03:49:10.295Z,100.00
2023-05-20T03:51:40.788Z,100.00
2023-05-20T03:54:18.219Z,100.00
2023-05-20T03:56:53.268Z,100.00
2023-05-20T03:59:23.668Z,100.00
2023-05-20T04:01:54.227Z,100.00
2023-05-20T04:04:24.678Z,100.00
2023-05-20T04:06:55.046Z,100.00
2023-05-20T04:09:28.356Z,100.00
2023-05-20T04:11:58.659Z,100.00
2023-05-20T04:14:30.163Z,100.00
2023-05-20T04:17:01.831Z,100.00
2023-05-20T04:19:32.613Z,100.00
2023-05-20T04:22:02.959Z,100.00
2023-05-20T04:24:38.344Z,100.00
2023-05-20T04:27:09.160Z,100.00
2023-05-20T04:29:41.785Z,100.00
2023-05-20T04:32:12.705Z,100.00
2023-05-20T04:34:43.250Z,100.00
2023-05-20T04:37:14.285Z,100.00
2023-05-20T04:39:50.169Z,100.00
2023-05-20T04:42:22.999Z,100.00
2023-05-20T04:44:53.928Z,100.00
2023-05-20T04:47:24.874Z,100.00
2023-05-20T04:49:58.258Z,100.00
2023-05-20T04:52:28.899Z,100.00
2023-05-20T04:55:02.431Z,100.00
2023-05-20T04:57:34.448Z,100.00
2023-05-20T05:00:07.983Z,100.00
2023-05-20T05:02:37.942Z,100.00
2023-05-20T05:05:09.548Z,100.00
2023-05-20T05:07:40.171Z,100.00
2023-05-20T05:10:16.051Z,100.00
2023-05-20T05:12:46.401Z,100.00
2023-05-20T05:15:20.152Z,100.00
2023-05-20T05:17:56.185Z,100.00
2023-05-20T05:20:26.554Z,100.00
2023-05-20T05:22:57.254Z,100.00
2023-05-20T05:25:31.183Z,100.00
2023-05-20T05:28:03.322Z,100.00
2023-05-20T05:30:38.255Z,100.00
2023-05-20T05:33:09.190Z,100.00
2023-05-20T05:35:40.004Z,100.00
2023-05-20T05:38:10.740Z,100.00
2023-05-20T05:40:45.424Z,100.00
2023-05-20T05:43:15.898Z,100.00
2023-05-20T05:45:47.698Z,100.00
2023-05-20T05:48:18.277Z,100.00
2023-05-20T05:50:49.539Z,100.00
2023-05-20T05:53:21.424Z,100.00
2023-05-20T05:55:55.310Z,100.00
2023-05-20T05:58:26.125Z,100.00
2023-05-20T06:00:56.995Z,100.00
2023-05-20T06:03:27.846Z,100.00
2023-05-20T06:05:58.594Z,100.00
2023-05-20T06:08:29.278Z,100.00
2023-05-20T06:11:02.839Z,100.00
2023-05-20T06:13:34.461Z,100.00
2023-05-20T06:16:04.793Z,100.00
2023-05-20T06:18:35.043Z,100.00
2023-05-20T06:21:08.485Z,100.00
2023-05-20T06:23:39.188Z,100.00
2023-05-20T06:26:15.700Z,100.00
2023-05-20T06:28:46.298Z,100.00
2023-05-20T06:31:17.596Z,100.00
2023-05-20T06:33:48.356Z,100.00
2023-05-20T06:36:19.684Z,100.00
2023-05-20T06:38:50.569Z,100.00
2023-05-20T06:41:24.615Z,100.00
2023-05-20T06:43:55.147Z,100.00
2023-05-20T06:46:44.509Z,100.00
2023-05-20T06:49:19.041Z,100.00
2023-05-20T06:51:49.550Z,100.00
2023-05-20T06:54:20.317Z,100.00
2023-05-20T06:56:54.525Z,100.00
2023-05-20T06:59:26.869Z,100.00
2023-05-20T07:01:57.440Z,100.00
2023-05-20T07:04:28.238Z,100.00
2023-05-20T07:06:59.276Z,100.00
2023-05-20T07:09:29.889Z,100.00
2023-05-20T07:12:03.886Z,100.00
2023-05-20T07:14:34.257Z,100.00
2023-05-20T07:17:05.366Z,100.00
2023-05-20T07:19:36.599Z,100.00
2023-05-20T07:22:06.875Z,100.00
2023-05-20T07:24:53.343Z,100.00
2023-05-20T07:27:26.729Z,100.00
2023-05-20T07:29:57.703Z,100.00
2023-05-20T07:32:28.180Z,100.00
2023-05-20T07:34:59.978Z,100.00
2023-05-20T07:37:30.513Z,100.00
2023-05-20T07:40:00.978Z,100.00
2023-05-20T07:42:34.546Z,100.00
2023-05-20T07:45:05.735Z,100.00
2023-05-20T07:47:36.884Z,100.00
2023-05-20T07:50:07.488Z,100.00
2023-05-20T07:52:55.157Z,100.00
2023-05-20T07:55:29.427Z,100.00
2023-05-20T07:58:03.535Z,100.00
2023-05-20T08:00:36.652Z,100.00
2023-05-20T08:03:10.713Z,100.00
2023-05-20T08:05:53.007Z,100.00
2023-05-20T08:08:23.753Z,100.00
2023-05-20T08:10:59.634Z,100.00
2023-05-20T08:13:33.704Z,100.00
2023-05-20T08:16:06.827Z,100.00
2023-05-20T08:18:38.780Z,100.00
2023-05-20T08:21:11.006Z,100.00
2023-05-20T08:23:41.536Z,100.00
2023-05-20T08:26:12.533Z,100.00
2023-05-20T08:28:49.663Z,100.00
2023-05-20T08:31:23.283Z,100.00
2023-05-20T08:33:54.523Z,100.00
2023-05-20T08:36:28.079Z,100.00
2023-05-20T08:38:59.382Z,100.00
2023-05-20T08:41:32.044Z,100.00
2023-05-20T08:44:07.510Z,100.00
2023-05-20T08:46:40.763Z,100.00
2023-05-20T08:49:12.348Z,100.00
2023-05-20T08:51:43.658Z,100.00
2023-05-20T08:54:15.195Z,100.00
2023-05-20T08:56:47.216Z,100.00
2023-05-20T08:59:22.804Z,100.00
2023-05-20T09:01:53.991Z,100.00
2023-05-20T09:04:24.806Z,100.00
2023-05-20T09:06:56.031Z,100.00
2023-05-20T09:09:26.738Z,100.00
2023-05-20T09:11:57.440Z,100.00
2023-05-20T09:14:30.985Z,100.00
2023-05-20T09:17:02.036Z,100.00
2023-05-20T09:19:32.815Z,100.00
2023-05-20T09:22:04.169Z,100.00
2023-05-20T09:24:35.992Z,100.00
2023-05-20T09:27:09.125Z,100.00
2023-05-20T09:29:44.293Z,100.00
2023-05-20T09:32:15.124Z,100.00
2023-05-20T09:34:46.430Z,100.00
2023-05-20T09:37:22.752Z,100.00
2023-05-20T09:40:01.662Z,100.00
2023-05-20T09:42:38.784Z,100.00
2023-05-20T09:45:16.344Z,100.00
2023-05-20T09:47:47.983Z,100.00
2023-05-20T09:50:21.695Z,100.00
2023-05-20T09:52:54.327Z,100.00
2023-05-20T09:55:27.227Z,100.00
2023-05-20T09:58:00.597Z,100.00
2023-05-20T10:00:37.000Z,100.00
2023-05-20T10:03:09.177Z,100.00
2023-05-20T10:05:44.138Z,100.00
2023-05-20T10:08:35.062Z,100.00
2023-05-20T10:11:17.098Z,100.00
2023-05-20T10:14:00.294Z,100.00
2023-05-20T10:16:46.832Z,100.00
2023-05-20T10:19:31.184Z,100.00
2023-05-20T10:22:04.493Z,100.00
2023-05-20T10:24:41.812Z,100.00
2023-05-20T10:27:15.213Z,100.00
2023-05-20T10:32:32.149Z,100.00
2023-05-20T10:35:05.650Z,100.00
2023-05-20T10:37:40.147Z,100.00
2023-05-20T10:40:12.840Z,100.00
2023-05-20T10:42:46.895Z,100.00
2023-05-20T11:00:59.350Z,94.09
2023-05-20T11:03:29.889Z,90.11
2023-05-20T11:06:03.593Z,100.00
2023-05-20T11:08:34.453Z,97.12
2023-05-20T11:11:04.822Z,93.82
2023-05-20T11:13:34.996Z,89.57
2023-05-20T11:16:08.725Z,90.91
2023-05-20T11:18:39.074Z,94.02
2023-05-20T11:21:09.635Z,86.10
2023-05-20T11:23:42.216Z,79.35
2023-05-20T11:26:12.719Z,82.67
2023-05-20T11:28:45.770Z,81.28
2023-05-20T11:31:21.022Z,83.26
2023-05-20T11:33:53.764Z,80.19
2023-05-20T11:36:28.252Z,84.10
2023-05-20T11:39:01.256Z,75.39
2023-05-20T11:41:32.253Z,77.72
2023-05-20T11:44:03.105Z,78.00
2023-05-20T11:46:44.186Z,78.73
2023-05-20T11:49:16.823Z,78.18
2023-05-20T11:51:51.109Z,76.41
2023-05-20T11:54:21.584Z,76.39
2023-05-20T11:56:51.901Z,78.09
2023-05-20T11:59:22.245Z,73.07
2023-05-20T12:01:55.005Z,69.93
2023-05-20T12:04:25.430Z,76.89
2023-05-20T12:06:56.285Z,72.74
2023-05-20T12:09:27.036Z,69.17
2023-05-20T12:11:57.343Z,69.88
2023-05-20T12:14:30.315Z,70.47
2023-05-20T12:17:03.708Z,70.17
2023-05-20T12:19:35.990Z,71.42
2023-05-20T12:22:07.218Z,71.33
2023-05-20T12:24:37.675Z,71.14
2023-05-20T12:27:08.463Z,71.31
2023-05-20T12:29:38.724Z,71.40
2023-05-20T12:32:13.871Z,72.43
2023-05-20T12:34:44.054Z,71.02
2023-05-20T12:37:14.271Z,76.48
2023-05-20T12:39:44.416Z,73.19
2023-05-20T12:42:16.837Z,70.26
2023-05-20T12:44:47.136Z,74.40
2023-05-20T12:47:20.075Z,72.08
2023-05-20T12:49:53.927Z,72.64
2023-05-20T12:52:24.152Z,76.29
2023-05-20T12:54:54.548Z,68.42
2023-05-20T12:57:25.519Z,66.21
2023-05-20T12:59:55.852Z,70.92
2023-05-20T13:02:40.112Z,67.86
2023-05-20T13:05:13.304Z,68.48
2023-05-20T13:07:43.194Z,59.86
2023-05-20T13:10:14.393Z,62.52
2023-05-20T13:12:46.370Z,64.33
2023-05-20T13:15:25.061Z,65.87
2023-05-20T13:17:57.998Z,67.92
2023-05-20T13:20:28.159Z,67.57
2023-05-20T13:22:59.754Z,67.03
2023-05-20T13:25:29.899Z,62.43
2023-05-20T13:28:00.071Z,63.56
2023-05-20T13:30:30.870Z,63.49
2023-05-20T13:33:03.788Z,63.60
2023-05-20T13:35:33.990Z,63.66
2023-05-20T13:38:04.259Z,62.64
2023-05-20T13:40:34.604Z,60.12
2023-05-20T13:43:04.872Z,62.10
2023-05-20T13:45:37.711Z,64.42
2023-05-20T13:48:11.523Z,64.78
2023-05-20T13:50:41.760Z,60.74
2023-05-20T13:53:13.984Z,64.67
2023-05-20T13:55:44.733Z,63.99
2023-05-20T13:58:14.847Z,60.75
2023-05-20T14:00:45.525Z,63.20
2023-05-20T14:03:18.698Z,63.47
2023-05-20T14:05:49.284Z,62.88
2023-05-20T14:08:22.237Z,61.36
2023-05-20T14:10:54.965Z,64.19
2023-05-20T14:13:25.640Z,59.49
2023-05-20T14:15:56.697Z,61.45
2023-05-20T14:18:29.524Z,62.23
2023-05-20T14:20:59.681Z,62.47
2023-05-20T14:23:32.876Z,62.34
2023-05-20T14:26:03.465Z,62.24
2023-05-20T14:28:33.566Z,61.07
2023-05-20T14:31:04.080Z,60.90
2023-05-20T14:33:37.069Z,64.44
2023-05-20T14:36:07.939Z,58.02
2023-05-20T14:38:38.081Z,58.09
2023-05-20T14:41:08.319Z,59.22
2023-05-20T14:43:38.550Z,58.92
2023-05-20T14:46:08.932Z,60.29
2023-05-20T14:48:41.671Z,60.89
2023-05-20T14:51:11.796Z,61.58
2023-05-20T14:53:42.449Z,59.26
2023-05-20T14:56:12.655Z,61.26
2023-05-20T14:58:44.615Z,62.43
2023-05-20T15:01:14.819Z,64.46
2023-05-20T15:03:47.864Z,63.23
2023-05-20T15:06:17.780Z,67.88
2023-05-20T15:08:48.000Z,64.26
2023-05-20T15:11:18.180Z,63.18
2023-05-20T15:13:48.871Z,64.12
2023-05-20T15:16:19.567Z,63.40
2023-05-20T15:18:52.564Z,62.06
2023-05-20T15:21:22.735Z,65.71
2023-05-20T15:23:52.959Z,63.50
2023-05-20T15:26:23.129Z,62.92
2023-05-20T15:28:53.614Z,62.79
2023-05-20T15:31:23.929Z,62.32
2023-05-20T15:33:58.350Z,62.34
2023-05-20T15:36:28.608Z,63.25
2023-05-20T15:38:58.726Z,62.19
2023-05-20T15:41:29.018Z,67.02
2023-05-20T15:43:59.161Z,63.09
2023-05-20T15:46:29.683Z,65.05
2023-05-20T15:49:02.481Z,64.80
2023-05-20T15:51:32.558Z,65.08
2023-05-20T15:54:02.681Z,64.16
2023-05-20T15:56:34.368Z,64.42
2023-05-20T15:59:04.539Z,62.02
2023-05-20T16:01:34.783Z,62.65
2023-05-20T16:04:07.725Z,61.81
2023-05-20T16:06:38.032Z,63.58
2023-05-20T16:09:08.247Z,63.49
2023-05-20T16:11:38.995Z,64.19
2023-05-20T16:14:09.136Z,66.37
2023-05-20T16:16:39.578Z,61.14
2023-05-20T16:19:12.436Z,63.04
2023-05-20T16:21:42.662Z,64.49
2023-05-20T16:24:12.809Z,62.60
2023-05-20T16:26:43.024Z,63.82
2023-05-20T16:29:15.712Z,65.27
2023-05-20T16:31:47.422Z,66.55
2023-05-20T16:34:20.394Z,66.98
2023-05-20T16:36:50.636Z,66.32
2023-05-20T16:39:20.795Z,69.35
2023-05-20T16:41:50.901Z,70.94
2023-05-20T16:44:21.137Z,73.52
2023-05-20T16:46:53.935Z,78.17
2023-05-20T16:49:26.957Z,77.00
2023-05-20T16:51:57.207Z,79.82
2023-05-20T16:54:27.490Z,80.78
2023-05-20T16:56:57.694Z,82.56
2023-05-20T16:59:30.515Z,87.50
2023-05-20T17:02:01.033Z,88.42
2023-05-20T17:04:33.825Z,93.17
2023-05-20T17:07:04.657Z,94.15
2023-05-20T17:09:34.825Z,94.56
2023-05-20T17:12:08.970Z,97.06
2023-05-20T17:14:39.083Z,96.52
2023-05-20T17:17:09.640Z,98.58
2023-05-20T17:19:42.541Z,98.25
2023-05-20T17:22:13.507Z,98.83
2023-05-20T17:24:43.723Z,97.47
2023-05-20T17:27:13.901Z,99.87
2023-05-20T17:29:44.138Z,99.50
2023-05-20T17:32:14.375Z,100.00
2023-05-20T17:34:47.089Z,100.00
2023-05-20T17:37:17.471Z,100.00
2023-05-20T17:39:47.698Z,100.00
2023-05-20T17:42:17.921Z,100.00
2023-05-20T17:44:48.171Z,100.00
2023-05-20T17:47:20.788Z,100.00
2023-05-20T17:49:53.705Z,100.00
2023-05-20T17:52:23.824Z,100.00
2023-05-20T17:54:53.993Z,100.00
2023-05-20T17:57:24.187Z,100.00
2023-05-20T17:59:58.149Z,100.00
2023-05-20T18:02:28.373Z,100.00
2023-05-20T18:05:01.265Z,100.00
2023-05-20T18:07:36.144Z,100.00
2023-05-20T18:10:07.894Z,100.00
2023-05-20T18:12:38.255Z,100.00
2023-05-20T18:15:15.294Z,100.00
2023-05-20T18:17:45.515Z,100.00
2023-05-20T18:20:18.696Z,100.00
2023-05-20T18:22:52.518Z,100.00
2023-05-20T18:25:22.766Z,100.00
2023-05-20T18:27:52.914Z,100.00
2023-05-20T18:30:23.600Z,100.00
2023-05-20T18:32:53.815Z,100.00
2023-05-20T18:35:26.717Z,100.00
2023-05-20T18:37:56.920Z,100.00
2023-05-20T18:40:28.400Z,100.00
2023-05-20T18:42:59.223Z,100.00
2023-05-20T18:45:30.118Z,100.00
2023-05-20T18:48:00.697Z,100.00
2023-05-20T18:50:33.808Z,100.00
2023-05-20T18:53:04.177Z,100.00
2023-05-20T18:55:35.009Z,100.00
2023-05-20T18:58:05.278Z,100.00
2023-05-20T19:00:36.360Z,100.00
2023-05-20T19:03:06.947Z,100.00
2023-05-20T19:05:40.298Z,100.00
2023-05-20T19:08:10.744Z,100.00
2023-05-20T19:10:41.877Z,100.00
2023-05-20T19:13:12.140Z,100.00
2023-05-20T19:15:42.531Z,100.00
2023-05-20T19:18:13.745Z,100.00
2023-05-20T19:20:46.834Z,100.00
2023-05-20T19:23:16.972Z,100.00
2023-05-20T19:25:47.269Z,100.00
2023-05-20T19:28:17.554Z,100.00
2023-05-20T19:30:48.400Z,100.00
2023-05-20T19:33:24.221Z,100.00
2023-05-20T19:35:57.972Z,100.00
2023-05-20T19:38:28.229Z,100.00
2023-05-20T19:40:58.486Z,100.00
2023-05-20T19:43:30.844Z,100.00
2023-05-20T19:46:01.344Z,100.00
2023-05-20T19:48:31.568Z,100.00
2023-05-20T19:51:07.208Z,100.00
2023-05-20T19:53:38.268Z,100.00
2023-05-20T19:56:09.191Z,100.00
2023-05-20T19:58:39.429Z,100.00
2023-05-20T20:01:13.300Z,100.00
2023-05-20T20:03:44.315Z,100.00
2023-05-20T20:06:17.098Z,100.00
2023-05-20T20:08:47.347Z,100.00
2023-05-20T20:11:17.617Z,100.00
2023-05-20T20:13:47.830Z,100.00
2023-05-20T20:16:18.393Z,100.00
2023-05-20T20:18:48.618Z,100.00
2023-05-20T20:21:25.963Z,100.00
2023-05-20T20:23:56.320Z,100.00
2023-05-20T20:26:26.443Z,100.00
2023-05-20T20:28:56.685Z,100.00
2023-05-20T20:31:27.769Z,100.00
2023-05-20T20:33:57.953Z,100.00
2023-05-20T20:36:32.162Z,100.00
2023-05-20T20:39:05.378Z,100.00
2023-05-20T20:41:38.891Z,100.00
2023-05-20T20:44:08.816Z,100.00
2023-05-20T20:46:41.629Z,100.00
2023-05-20T20:49:11.875Z,100.00
2023-05-20T20:51:44.688Z,100.00
2023-05-20T20:54:14.918Z,100.00
2023-05-20T20:56:47.294Z,100.00
2023-05-20T20:59:18.903Z,100.00
2023-05-20T21:01:49.669Z,100.00
2023-05-20T21:04:19.871Z,100.00
2023-05-20T21:06:52.705Z,100.00
2023-05-20T21:09:22.873Z,100.00
2023-05-20T21:11:53.058Z,100.00
2023-05-20T21:14:23.153Z,100.00
2023-05-20T21:16:53.446Z,100.00
2023-05-20T21:19:23.636Z,100.00
2023-05-20T21:21:56.607Z,100.00
2023-05-20T21:24:26.846Z,100.00
2023-05-20T21:26:57.153Z,100.00
2023-05-20T21:29:27.355Z,100.00
2023-05-20T21:31:57.565Z,100.00
2023-05-20T21:34:27.739Z,100.00
2023-05-20T21:37:00.518Z,100.00
2023-05-20T21:39:30.682Z,100.00
2023-05-20T21:42:00.831Z,100.00
2023-05-20T21:44:30.982Z,100.00
2023-05-20T21:47:01.276Z,100.00
2023-05-20T21:49:31.409Z,100.00
2023-05-20T21:52:04.208Z,100.00
2023-05-20T21:54:34.398Z,100.00
2023-05-20T21:57:05.578Z,100.00
2023-05-20T21:59:35.722Z,100.00
2023-05-20T22:02:06.105Z,100.00
2023-05-20T22:04:37.537Z,100.00
2023-05-20T22:07:10.423Z,100.00
2023-05-20T22:09:40.763Z,100.00
2023-05-20T22:12:11.368Z,100.00
2023-05-20T22:14:41.810Z,100.00
2023-05-20T22:17:11.966Z,100.00
2023-05-20T22:19:42.198Z,100.00
2023-05-20T22:22:14.954Z,100.00
2023-05-20T22:24:45.119Z,100.00
2023-05-20T22:27:15.309Z,100.00
2023-05-20T22:29:46.460Z,100.00
2023-05-20T22:32:16.596Z,100.00
2023-05-20T22:34:47.180Z,100.00
2023-05-20T22:37:20.016Z,100.00
2023-05-20T22:39:50.193Z,100.00
2023-05-20T22:42:20.433Z,100.00
2023-05-20T22:44:50.616Z,100.00
2023-05-20T22:47:20.858Z,100.00
2023-05-20T22:49:51.062Z,100.00
2023-05-20T22:52:25.541Z,100.00
2023-05-20T22:54:56.305Z,100.00
2023-05-20T22:57:27.015Z,100.00
2023-05-20T22:59:57.079Z,100.00
2023-05-20T23:02:30.662Z,100.00
2023-05-20T23:05:00.916Z,100.00
2023-05-20T23:07:33.680Z,100.00
2023-05-20T23:10:03.831Z,100.00
2023-05-20T23:12:34.014Z,100.00
2023-05-20T23:15:04.167Z,100.00
2023-05-20T23:17:34.420Z,100.00
2023-05-20T23:20:05.679Z,100.00
2023-05-20T23:22:38.502Z,100.00
2023-05-20T23:25:09.647Z,100.00
2023-05-20T23:27:39.790Z,100.00
2023-05-20T23:30:11.716Z,100.00
2023-05-20T23:32:41.936Z,100.00
2023-05-20T23:35:13.615Z,100.00
2023-05-20T23:37:46.406Z,100.00
2023-05-20T23:40:16.860Z,100.00
2023-05-20T23:42:47.019Z,100.00
2023-05-20T23:45:17.682Z,100.00
2023-05-20T23:47:48.186Z,100.00
2023-05-20T23:50:18.433Z,100.00
2023-05-20T23:52:51.259Z,100.00
2023-05-20T23:55:21.562Z,100.00
2023-05-20T23:57:51.750Z,100.00
